createdAt,value
2023-03-10T00:00:45.451Z,11.03
2023-03-10T00:06:47.540Z,11.27
2023-03-10T00:09:45.116Z,10.83
2023-03-10T00:12:40.730Z,10.96
2023-03-10T00:15:37.261Z,10.88
2023-03-10T00:18:32.809Z,11.12
2023-03-10T00:21:30.389Z,11.03
2023-03-10T00:24:25.906Z,11
2023-03-10T00:27:21.502Z,10.84
2023-03-10T00:30:17.026Z,10.83
2023-03-10T00:33:12.591Z,10.94
2023-03-10T00:36:10.226Z,11.02
2023-03-10T00:39:05.710Z,10.92
2023-03-10T00:42:03.266Z,10.42
2023-03-10T00:44:59.809Z,10.11
2023-03-10T00:47:55.379Z,9.74
2023-03-10T00:50:50.928Z,9.96
2023-03-10T00:53:46.485Z,10.57
2023-03-10T00:56:44.042Z,10.46
2023-03-10T00:59:49.982Z,10.09
2023-03-10T01:02:40.213Z,10.17
2023-03-10T01:05:35.763Z,10.34
2023-03-10T01:08:31.268Z,10.01
2023-03-10T01:14:33.437Z,9.8
2023-03-10T01:17:30.949Z,9.73
2023-03-10T01:20:27.512Z,9.96
2023-03-10T01:23:24.069Z,9.95
2023-03-10T01:26:21.618Z,9.86
2023-03-10T01:29:18.178Z,10.01
2023-03-10T01:32:13.757Z,10.37
2023-03-10T01:35:10.316Z,10.69
2023-03-10T01:38:07.802Z,10.54
2023-03-10T01:41:05.393Z,10.47
2023-03-10T01:44:04.983Z,10.4
2023-03-10T01:47:11.522Z,9.96
2023-03-10T01:50:11.061Z,10.03
2023-03-10T01:53:08.652Z,10.11
2023-03-10T01:56:07.177Z,9.8
2023-03-10T01:59:05.725Z,9.84
2023-03-10T02:02:02.378Z,10.2
2023-03-10T02:05:03.840Z,10.81
2023-03-10T02:08:00.349Z,10.66
2023-03-10T02:10:56.949Z,10.6
2023-03-10T02:13:53.484Z,10.82
2023-03-10T02:16:50.064Z,10.91
2023-03-10T02:20:00.522Z,10.98
2023-03-10T02:22:56.174Z,11.02
2023-03-10T02:26:00.717Z,10.7
2023-03-10T02:28:57.274Z,10.19
2023-03-10T02:31:55.060Z,10.57
2023-03-10T02:34:50.364Z,10.58
2023-03-10T02:37:51.862Z,10.53
2023-03-10T02:41:01.401Z,10.38
2023-03-10T02:44:00.017Z,10.25
2023-03-10T02:46:55.520Z,10.47
2023-03-10T02:49:53.073Z,10.51
2023-03-10T02:52:57.596Z,10.44
2023-03-10T02:55:54.216Z,10.09
2023-03-10T02:58:50.706Z,9.99
2023-03-10T03:01:47.280Z,9.92
2023-03-10T03:04:42.877Z,9.95
2023-03-10T03:07:38.457Z,10.02
2023-03-10T03:10:34.977Z,9.62
2023-03-10T03:13:30.547Z,9.45
2023-03-10T03:16:26.196Z,9.52
2023-03-10T03:19:21.668Z,9.74
2023-03-10T03:22:21.221Z,9.24
2023-03-10T03:25:18.847Z,9.38
2023-03-10T03:28:15.296Z,9.49
2023-03-10T03:31:14.899Z,10.03
2023-03-10T03:34:10.434Z,10.35
2023-03-10T03:37:07.045Z,9.99
2023-03-10T03:40:12.514Z,9.82
2023-03-10T03:43:08.079Z,9.57
2023-03-10T03:46:05.917Z,9.72
2023-03-10T03:49:01.233Z,9.41
2023-03-10T03:51:56.761Z,9.93
2023-03-10T03:54:52.345Z,10.02
2023-03-10T03:57:48.921Z,10.14
2023-03-10T04:00:48.220Z,10.25
2023-03-10T04:03:45.167Z,9.89
2023-03-10T04:06:40.560Z,9.53
2023-03-10T04:09:39.131Z,9.58
2023-03-10T04:12:34.705Z,9.69
2023-03-10T04:15:30.357Z,9.94
2023-03-10T04:18:26.828Z,10.18
2023-03-10T04:21:22.392Z,9.76
2023-03-10T04:24:17.930Z,9.64
2023-03-10T04:27:13.454Z,10.08
2023-03-10T04:30:11.014Z,9.92
2023-03-10T04:33:07.612Z,9.66
2023-03-10T04:36:04.247Z,10.2
2023-03-10T04:38:59.730Z,10.32
2023-03-10T04:41:56.302Z,9.98
2023-03-10T04:44:51.807Z,9.92
2023-03-10T04:47:47.420Z,9.92
2023-03-10T04:50:43.952Z,9.95
2023-03-10T04:53:40.544Z,10.08
2023-03-10T04:56:38.096Z,10.05
2023-03-10T04:59:33.642Z,9.89
2023-03-10T05:02:29.194Z,9.13
2023-03-10T05:05:24.798Z,9.43
2023-03-10T05:08:20.346Z,9.5
2023-03-10T05:11:16.851Z,8.95
2023-03-10T05:14:12.439Z,8.94
2023-03-10T05:17:08.017Z,9.2
2023-03-10T05:20:07.564Z,9.79
2023-03-10T05:23:03.130Z,10.02
2023-03-10T05:25:58.758Z,9.85
2023-03-10T05:28:56.254Z,9.71
2023-03-10T05:31:57.783Z,9.8
2023-03-10T05:34:56.380Z,10.02
2023-03-10T05:37:52.914Z,10.25
2023-03-10T05:40:51.475Z,10.43
2023-03-10T05:43:46.999Z,10.09
2023-03-10T05:46:43.620Z,9.95
2023-03-10T05:49:39.167Z,9.84
2023-03-10T05:52:36.704Z,9.99
2023-03-10T05:55:32.251Z,10.53
2023-03-10T05:58:27.767Z,10.66
2023-03-10T06:01:24.340Z,10.64
2023-03-10T06:04:20.040Z,10.78
2023-03-10T06:07:15.508Z,10.53
2023-03-10T06:10:11.074Z,10.68
2023-03-10T06:13:06.587Z,10.8
2023-03-10T06:16:04.265Z,10.61
2023-03-10T06:19:00.726Z,10.84
2023-03-10T06:21:57.294Z,10.86
2023-03-10T06:24:52.866Z,10.82
2023-03-10T06:27:48.397Z,10.75
2023-03-10T06:30:43.976Z,10.85
2023-03-10T06:33:39.569Z,10.97
2023-03-10T06:36:37.088Z,11.19
2023-03-10T06:39:32.647Z,11.41
2023-03-10T06:42:28.228Z,11.55
2023-03-10T06:45:25.729Z,11.67
2023-03-10T06:48:21.296Z,11.64
2023-03-10T06:51:20.886Z,11.64
2023-03-10T06:54:16.434Z,11.63
2023-03-10T06:57:12.008Z,11.81
2023-03-10T07:00:11.590Z,12.03
2023-03-10T07:03:07.093Z,12.16
2023-03-10T07:06:02.637Z,12.55
2023-03-10T07:08:58.286Z,12.22
2023-03-10T07:11:54.752Z,12.24
2023-03-10T07:14:51.332Z,12.4
2023-03-10T07:17:46.875Z,12.59
2023-03-10T07:20:44.466Z,12.62
2023-03-10T07:23:40.021Z,12.61
2023-03-10T07:26:39.576Z,13.08
2023-03-10T07:29:36.155Z,13.26
2023-03-10T07:32:31.720Z,13.4
2023-03-10T07:35:27.264Z,13.59
2023-03-10T07:38:22.868Z,13.75
2023-03-10T07:41:20.378Z,13.6
2023-03-10T07:44:15.939Z,13.58
2023-03-10T07:47:11.526Z,13.64
2023-03-10T07:50:08.040Z,13.51
2023-03-10T07:53:03.628Z,13.52
2023-03-10T07:56:00.181Z,13.52
2023-03-10T07:58:58.751Z,13.69
2023-03-10T08:01:54.287Z,13.75
2023-03-10T08:04:49.892Z,13.44
2023-03-10T08:07:45.388Z,13.42
2023-03-10T08:10:42.517Z,13.41
2023-03-10T08:13:39.097Z,13.34
2023-03-10T08:16:35.580Z,13.3
2023-03-10T08:19:31.674Z,13.26
2023-03-10T08:22:28.208Z,13.38
2023-03-10T08:25:23.802Z,13.41
2023-03-10T08:28:19.360Z,13.29
2023-03-10T08:31:15.885Z,13.44
2023-03-10T08:34:12.464Z,13.56
2023-03-10T08:37:07.995Z,13.53
2023-03-10T08:40:07.596Z,13.56
2023-03-10T08:43:03.107Z,13.51
2023-03-10T08:45:58.639Z,13.44
2023-03-10T08:48:54.270Z,13.58
2023-03-10T08:51:49.822Z,13.49
2023-03-10T08:54:47.333Z,13.55
2023-03-10T08:57:42.898Z,13.5
2023-03-10T09:00:42.491Z,13.64
2023-03-10T09:03:39.065Z,13.74
2023-03-10T09:06:36.605Z,13.76
2023-03-10T09:09:32.193Z,14.04
2023-03-10T09:12:34.086Z,13.98
2023-03-10T09:15:29.250Z,13.95
2023-03-10T09:18:26.816Z,14.07
2023-03-10T09:21:22.402Z,14.15
2023-03-10T09:24:19.940Z,14.03
2023-03-10T09:27:15.490Z,13.86
2023-03-10T09:30:12.054Z,13.91
2023-03-10T09:33:12.591Z,13.9
2023-03-10T09:36:08.358Z,13.87
2023-03-10T09:39:04.769Z,13.96
2023-03-10T09:42:25.530Z,13.96
2023-03-10T09:45:30.863Z,14.06
2023-03-10T09:48:39.283Z,14.06
2023-03-10T09:51:42.817Z,13.92
2023-03-10T09:54:51.335Z,14.06
2023-03-10T09:57:49.928Z,14.13
2023-03-10T10:00:51.463Z,14.19
2023-03-10T10:03:53.330Z,14.23
2023-03-10T10:06:52.568Z,14.46
2023-03-10T10:09:56.078Z,14.56
2023-03-10T10:12:58.646Z,14.63
2023-03-10T10:16:18.218Z,14.54
2023-03-10T10:19:05.802Z,14.6
2023-03-10T10:22:10.292Z,14.63
2023-03-10T10:25:13.832Z,14.66
2023-03-10T10:28:18.330Z,14.72
2023-03-10T10:31:17.036Z,14.74
2023-03-10T10:34:19.794Z,14.94
2023-03-10T10:37:24.998Z,14.95
2023-03-10T10:40:23.556Z,14.98
2023-03-10T10:43:24.125Z,14.99
2023-03-10T10:46:27.711Z,15.02
2023-03-10T10:49:33.160Z,15.14
2023-03-10T10:52:30.731Z,15.23
2023-03-10T10:55:31.238Z,15.18
2023-03-10T10:58:30.852Z,15.16
2023-03-10T11:01:27.483Z,15.27
2023-03-10T11:04:28.873Z,15.43
2023-03-10T11:07:27.489Z,15.56
2023-03-10T11:10:27.012Z,15.57
2023-03-10T11:13:31.561Z,15.62
2023-03-10T11:16:35.119Z,15.76
2023-03-10T11:19:39.615Z,15.68
2023-03-10T11:22:42.182Z,15.94
2023-03-10T11:25:46.719Z,15.8
2023-03-10T11:28:53.268Z,15.61
2023-03-10T11:31:58.795Z,15.51
2023-03-10T11:35:07.361Z,15.66
2023-03-10T11:38:12.865Z,15.66
2023-03-10T11:41:14.465Z,15.64
2023-03-10T11:44:22.940Z,15.6
2023-03-10T11:47:29.500Z,15.61
2023-03-10T11:50:33.017Z,15.71
2023-03-10T11:53:37.592Z,15.71
2023-03-10T11:56:35.116Z,15.81
2023-03-10T11:59:36.662Z,15.9
2023-03-10T12:02:41.172Z,15.97
2023-03-10T12:05:43.984Z,16.07
2023-03-10T12:08:40.294Z,16.17
2023-03-10T12:11:37.849Z,16.29
2023-03-10T12:14:34.380Z,16.14
2023-03-10T12:17:30.960Z,16.12
2023-03-10T12:20:37.514Z,16.21
2023-03-10T12:23:41.065Z,16.47
2023-03-10T12:26:46.548Z,16.88
2023-03-10T12:29:52.132Z,17.6
2023-03-10T12:32:57.755Z,18.54
2023-03-10T12:35:56.259Z,18.92
2023-03-10T12:39:01.766Z,18.01
2023-03-10T12:42:17.291Z,18.11
2023-03-10T12:45:23.796Z,18.28
2023-03-10T12:48:26.289Z,18.61
2023-03-10T12:51:25.945Z,18.59
2023-03-10T12:54:37.382Z,18.84
2023-03-10T12:57:39.957Z,18.84
2023-03-10T13:00:42.522Z,19.68
2023-03-10T13:03:46.098Z,19.62
2023-03-10T13:06:48.611Z,19.87
2023-03-10T13:09:50.111Z,19.95
2023-03-10T13:12:50.688Z,20.42
2023-03-10T13:15:56.179Z,20.14
2023-03-10T13:18:53.788Z,19.96
2023-03-10T13:21:55.287Z,20.85
2023-03-10T13:24:58.882Z,20
2023-03-10T13:27:57.579Z,20.33
2023-03-10T13:30:59.962Z,21.01
2023-03-10T13:34:03.499Z,20.96
2023-03-10T13:37:03.061Z,20.84
2023-03-10T13:40:06.565Z,20.79
2023-03-10T13:43:08.111Z,21.28
2023-03-10T13:46:09.965Z,21.51
2023-03-10T13:49:07.232Z,20.66
2023-03-10T13:52:05.802Z,20.88
2023-03-10T13:55:05.313Z,20.42
2023-03-10T13:58:05.888Z,19.73
2023-03-10T14:01:02.483Z,20
2023-03-10T14:03:59.024Z,19.35
2023-03-10T14:07:00.541Z,18.45
2023-03-10T14:10:07.060Z,18.25
2023-03-10T14:13:15.590Z,18.29
2023-03-10T14:16:11.168Z,18.08
2023-03-10T14:19:08.750Z,18.21
2023-03-10T14:22:10.304Z,18.78
2023-03-10T14:25:07.827Z,18.98
2023-03-10T14:28:10.370Z,19.19
2023-03-10T14:31:07.132Z,19.22
2023-03-10T14:34:02.476Z,19.22
2023-03-10T14:36:58.047Z,18.2
2023-03-10T14:39:53.595Z,17.54
2023-03-10T14:42:52.203Z,16.7
2023-03-10T14:45:55.824Z,16.92
2023-03-10T14:48:52.294Z,17.15
2023-03-10T14:51:50.841Z,16.96
2023-03-10T14:54:48.400Z,16.65
2023-03-10T14:57:45.929Z,16.62
2023-03-10T15:00:46.488Z,16.19
2023-03-10T15:03:43.062Z,16.2
2023-03-10T15:06:38.592Z,15.86
2023-03-10T15:09:35.153Z,15.7
2023-03-10T15:12:32.713Z,15.7
2023-03-10T15:15:32.284Z,15.65
2023-03-10T15:18:27.854Z,15.65
2023-03-10T15:21:23.401Z,15.5
2023-03-10T15:24:19.953Z,15.43
2023-03-10T15:27:15.529Z,15.13
2023-03-10T15:30:16.077Z,14.95
2023-03-10T15:33:12.634Z,14.89
2023-03-10T15:36:10.256Z,15.07
2023-03-10T15:39:05.724Z,15.14
2023-03-10T15:42:05.311Z,15.21
2023-03-10T15:45:04.894Z,15.06
2023-03-10T15:48:00.470Z,14.96
2023-03-10T15:50:57.007Z,14.87
2023-03-10T15:53:52.490Z,14.81
2023-03-10T15:56:48.118Z,14.96
2023-03-10T15:59:43.667Z,14.83
2023-03-10T16:02:41.231Z,14.67
2023-03-10T16:05:38.748Z,14.52
2023-03-10T16:08:38.320Z,14.38
2023-03-10T16:11:34.881Z,14.28
2023-03-10T16:14:30.474Z,14.11
2023-03-10T16:17:28.017Z,13.9
2023-03-10T16:20:23.563Z,13.86
2023-03-10T16:23:19.115Z,13.71
2023-03-10T16:26:16.712Z,13.78
2023-03-10T16:29:14.212Z,13.9
2023-03-10T16:32:11.899Z,13.59
2023-03-10T16:35:08.382Z,13.53
2023-03-10T16:38:03.925Z,13.64
2023-03-10T16:41:00.492Z,13.38
2023-03-10T16:44:03.033Z,13.45
2023-03-10T16:47:01.605Z,13.53
2023-03-10T16:49:57.073Z,13.38
2023-03-10T16:52:56.830Z,13.45
2023-03-10T16:55:57.236Z,13.31
2023-03-10T16:58:52.772Z,13.31
2023-03-10T17:01:49.344Z,13.21
2023-03-10T17:04:45.973Z,13.01
2023-03-10T17:07:54.772Z,13.09
2023-03-10T17:10:44.297Z,12.97
2023-03-10T17:13:39.534Z,12.95
2023-03-10T17:16:45.256Z,13.13
2023-03-10T17:19:43.671Z,13.23
2023-03-10T17:22:39.214Z,13.3
2023-03-10T17:25:35.778Z,13.23
2023-03-10T17:28:32.319Z,13.03
2023-03-10T17:31:28.961Z,12.8
2023-03-10T17:34:26.455Z,12.57
2023-03-10T17:37:22.050Z,12.56
2023-03-10T17:40:21.654Z,12.53
2023-03-10T17:43:32.920Z,12.51
2023-03-10T17:46:23.689Z,12.41
2023-03-10T17:49:19.263Z,12.31
2023-03-10T17:52:15.758Z,12.26
2023-03-10T17:55:11.347Z,12.25
2023-03-10T17:58:06.909Z,12.18
2023-03-10T18:01:08.438Z,12.25
2023-03-10T18:04:05.058Z,12.1
2023-03-10T18:07:01.546Z,12.13
2023-03-10T18:13:02.618Z,12.02
2023-03-10T18:15:58.291Z,12.07
2023-03-10T18:18:55.808Z,11.96
2023-03-10T18:21:52.385Z,11.76
2023-03-10T18:24:47.936Z,11.77
2023-03-10T18:30:50.052Z,11.95
2023-03-10T18:33:45.539Z,12.06
2023-03-10T18:36:45.147Z,11.99
2023-03-10T18:39:41.699Z,12.1
2023-03-10T18:42:37.224Z,12.26
2023-03-10T18:45:32.752Z,12.14
2023-03-10T18:48:29.378Z,11.93
2023-03-10T18:51:25.929Z,11.83
2023-03-10T18:54:21.463Z,11.82
2023-03-10T18:57:17.032Z,11.68
2023-03-10T19:00:14.600Z,11.58
2023-03-10T19:03:13.308Z,11.78
2023-03-10T19:06:09.774Z,11.69
2023-03-10T19:09:08.261Z,11.7
2023-03-10T19:12:07.854Z,11.52
2023-03-10T19:15:08.337Z,11.62
2023-03-10T19:18:03.929Z,11.46
2023-03-10T19:20:59.498Z,11.48
2023-03-10T19:23:55.032Z,11.37
2023-03-10T19:26:50.584Z,11.19
2023-03-10T19:32:51.763Z,11.31
2023-03-10T19:35:48.256Z,11.24
2023-03-10T19:38:44.822Z,11
2023-03-10T19:41:43.399Z,11.08
2023-03-10T19:44:38.903Z,11.14
2023-03-10T19:47:34.555Z,10.89
2023-03-10T19:50:30.086Z,10.87
2023-03-10T19:53:26.566Z,10.95
2023-03-10T19:56:26.158Z,11.28
2023-03-10T19:59:24.729Z,11.39
2023-03-10T20:02:21.255Z,11.46
2023-03-10T20:05:16.845Z,11.75
2023-03-10T20:08:13.432Z,11.81
2023-03-10T20:11:12.939Z,11.68
2023-03-10T20:14:09.492Z,11.66
2023-03-10T20:17:06.153Z,11.58
2023-03-10T20:20:09.628Z,11.55
2023-03-10T20:23:05.166Z,11.48
2023-03-10T20:26:01.811Z,11.56
2023-03-10T20:28:57.259Z,11.55
2023-03-10T20:31:53.844Z,11.61
2023-03-10T20:34:53.456Z,11.58
2023-03-10T20:37:49.003Z,11.58
2023-03-10T20:40:45.497Z,11.6
2023-03-10T20:43:43.068Z,11.47
2023-03-10T20:46:40.647Z,11.73
2023-03-10T20:49:37.140Z,11.47
2023-03-10T20:52:33.769Z,11.7
2023-03-10T20:55:30.279Z,11.82
2023-03-10T20:58:27.866Z,11.8
2023-03-10T21:01:23.541Z,11.97
2023-03-10T21:04:20.101Z,11.98
2023-03-10T21:07:15.541Z,11.89
2023-03-10T21:10:13.100Z,11.71
2023-03-10T21:13:08.692Z,11.66
2023-03-10T21:19:09.760Z,11.61
2023-03-10T21:22:06.378Z,11.79
2023-03-10T21:25:03.883Z,11.8
2023-03-10T21:27:59.457Z,11.49
2023-03-10T21:30:56.184Z,11.53
2023-03-10T21:33:58.508Z,11.46
2023-03-10T21:36:55.109Z,11.32
2023-03-10T21:39:50.638Z,11.17
2023-03-10T21:42:48.216Z,11.08
2023-03-10T21:45:45.772Z,11.1
2023-03-10T21:48:44.405Z,11.16
2023-03-10T21:51:41.907Z,11.14
2023-03-10T21:54:37.521Z,11.19
2023-03-10T21:57:33.007Z,11.12
2023-03-10T22:00:29.554Z,11.04
2023-03-10T22:03:25.143Z,11.11
2023-03-10T22:06:21.689Z,10.88
2023-03-10T22:09:17.268Z,10.94
2023-03-10T22:12:12.821Z,10.61
2023-03-10T22:15:12.377Z,10.47
2023-03-10T22:18:08.210Z,10.72
2023-03-10T22:21:03.457Z,10.26
2023-03-10T22:24:00.093Z,10.22
2023-03-10T22:26:55.660Z,10.13
2023-03-10T22:29:51.164Z,9.93
2023-03-10T22:32:46.798Z,10.06
2023-03-10T22:35:45.367Z,10.07
2023-03-10T22:38:40.841Z,9.96
2023-03-10T22:41:40.380Z,10.33
2023-03-10T22:44:36.963Z,10.14
2023-03-10T22:47:32.475Z,9.9
2023-03-10T22:50:29.017Z,9.52
2023-03-10T22:53:24.604Z,9.58
2023-03-10T22:56:21.203Z,9.48
2023-03-10T22:59:16.719Z,9.34
2023-03-10T23:02:12.301Z,9.34
2023-03-10T23:05:07.866Z,9.34
2023-03-10T23:08:05.430Z,9.36
2023-03-10T23:11:01.980Z,9.36
2023-03-10T23:14:01.537Z,9.51
2023-03-10T23:16:57.054Z,9.47
2023-03-10T23:19:55.714Z,9.52
2023-03-10T23:22:51.207Z,9.58
2023-03-10T23:25:50.838Z,9.65
2023-03-10T23:28:48.302Z,9.69
2023-03-10T23:31:46.874Z,9.96
2023-03-10T23:37:48.975Z,10.29
2023-03-10T23:40:46.494Z,10.4
2023-03-10T23:43:43.049Z,10.75
2023-03-10T23:46:39.582Z,10.66
2023-03-10T23:49:35.207Z,10.51
2023-03-10T23:52:30.717Z,10.65
2023-03-10T23:55:27.325Z,10.56
2023-03-10T23:58:22.894Z,10.26
